Time;durP1;ratioP1;P1;durP2;ratioP2;P2;SDS_P1;SDS_P2;PMS_P1;PMS_P2;Temp;Humidity;BMP_temperature;BMP_pressure;BME280_temperature;BME280_humidity;BME280_pressure;Samples;Min_cycle;Max_cycle;Signal;HPM_P1;HPM_P2
2023/04/25 00:01:21;;;;;;;1.55;1.02;;;;;;;13.52;59.93;98682.72;4477398;32;20776;-90
2023/04/25 00:03:47;;;;;;;2.75;0.88;;;;;;;13.48;59.92;98685.59;4484850;31;20122;-90
2023/04/25 00:06:12;;;;;;;1.12;0.80;;;;;;;13.47;59.92;98684.75;4466883;31;20152;-89
2023/04/25 00:08:38;;;;;;;1.02;0.90;;;;;;;13.49;59.93;98677.69;4460751;32;20096;-89
2023/04/25 00:11:03;;;;;;;1.67;0.93;;;;;;;13.54;59.92;98669.53;4458819;32;20096;-91
2023/04/25 00:13:29;;;;;;;0.88;0.70;;;;;;;13.44;59.92;98677.09;4471627;31;20115;-90
2023/04/25 00:15:56;;;;;;;1.62;0.90;;;;;;;13.46;59.93;98671.75;4461631;32;20098;-90
2023/04/25 00:18:21;;;;;;;1.35;0.90;;;;;;;13.61;59.93;98670.84;4486135;31;20194;-90
2023/04/25 00:20:47;;;;;;;0.95;0.70;;;;;;;13.59;59.93;98662.25;4495159;31;20112;-90
2023/04/25 00:23:17;;;;;;;2.85;1.10;;;;;;;13.47;59.92;98661.22;4472349;32;20104;-89
2023/04/25 00:25:43;;;;;;;;;;;;;;;13.64;59.93;98659.34;4472703;32;20176;-88
2023/04/25 00:28:08;;;;;;;2.00;1.20;;;;;;;13.51;59.93;98672.34;4471567;31;19972;-89
2023/04/25 00:30:34;;;;;;;1.70;1.12;;;;;;;13.56;59.92;98669.44;4484718;32;20202;-89
2023/04/25 00:32:59;;;;;;;1.62;1.20;;;;;;;13.63;59.93;98650.66;4472046;31;20127;-89
2023/04/25 00:35:25;;;;;;;2.83;1.05;;;;;;;13.51;59.93;98648.81;4476690;31;20388;-89
2023/04/25 00:37:50;;;;;;;1.23;1.00;;;;;;;13.56;59.93;98646.75;4486046;31;20425;-88
2023/04/25 00:40:16;;;;;;;3.60;1.25;;;;;;;13.49;59.93;98642.84;4458350;32;20542;-89
2023/04/25 00:42:41;;;;;;;2.60;1.75;;;;;;;13.49;59.93;98663.75;4468634;32;20440;-89
2023/04/25 00:45:07;;;;;;;2.53;1.77;;;;;;;13.28;59.91;98646.78;4463592;32;20455;-89
2023/04/25 00:47:33;;;;;;;1.87;1.37;;;;;;;13.23;59.91;98643.56;4468630;32;20108;-89
2023/04/25 00:49:58;;;;;;;3.83;2.10;;;;;;;13.11;59.90;98645.13;4491805;31;20100;-88
2023/04/25 00:52:24;;;;;;;3.53;1.77;;;;;;;13.11;59.90;98640.75;4470187;32;27590;-88
2023/04/25 00:54:49;;;;;;;2.95;1.95;;;;;;;13.30;59.92;98639.66;4471482;32;20574;-89
2023/04/25 00:57:15;;;;;;;3.15;2.22;;;;;;;13.40;59.92;98640.78;4485559;31;23023;-90
2023/04/25 00:59:40;;;;;;;3.67;2.40;;;;;;;13.25;59.91;98636.47;4484778;32;20141;-90
2023/04/25 01:02:07;;;;;;;2.65;2.10;;;;;;;13.28;59.91;98631.94;4482430;31;20157;-91
2023/04/25 01:04:32;;;;;;;4.78;2.40;;;;;;;13.41;59.92;98630.22;4485489;32;20108;-90
2023/04/25 01:06:58;;;;;;;3.12;2.08;;;;;;;13.29;59.91;98632.75;4483178;31;20092;-89
2023/04/25 01:09:23;;;;;;;3.25;2.10;;;;;;;13.20;59.91;98626.31;4467475;31;20152;-89
2023/04/25 01:11:49;;;;;;;3.08;2.03;;;;;;;13.11;59.90;98624.22;4464542;31;20144;-90
2023/04/25 01:14:14;;;;;;;3.12;2.05;;;;;;;13.11;59.90;98625.06;4486277;31;20100;-89
2023/04/25 01:16:41;;;;;;;3.62;1.83;;;;;;;13.06;59.90;98636.72;4468782;31;20126;-90
2023/04/25 01:19:12;;;;;;;2.90;2.03;;;;;;;12.95;59.90;98628.69;4466175;31;20110;-91
2023/04/25 01:21:37;;;;;;;2.83;1.75;;;;;;;12.98;59.90;98631.09;4487186;31;20174;-89
2023/04/25 01:24:04;;;;;;;3.70;2.20;;;;;;;13.07;59.90;98633.19;4492403;31;20171;-90
2023/04/25 01:26:29;;;;;;;2.97;1.98;;;;;;;13.12;59.91;98624.13;4469084;32;20156;-89
2023/04/25 01:28:55;;;;;;;5.95;1.70;;;;;;;13.20;59.91;98624.53;4471017;32;20435;-89
2023/04/25 01:31:20;;;;;;;3.28;2.17;;;;;;;13.23;59.91;98628.72;4474853;32;20123;-90
2023/04/25 01:33:47;;;;;;;3.08;1.80;;;;;;;13.21;59.91;98626.22;4458165;32;20096;-90
2023/04/25 01:36:12;;;;;;;4.72;1.85;;;;;;;13.28;59.91;98626.69;4468558;32;20135;-90
2023/04/25 01:38:38;;;;;;;4.93;1.98;;;;;;;13.28;59.91;98616.25;4479695;31;20080;-88
2023/04/25 01:41:03;;;;;;;3.53;1.77;;;;;;;13.09;59.90;98621.72;4470534;32;20146;-89
2023/04/25 01:43:29;;;;;;;3.53;1.92;;;;;;;13.13;59.91;98624.97;4480230;31;20111;-86
2023/04/25 01:45:54;;;;;;;2.50;1.80;;;;;;;13.04;59.90;98626.38;4488394;31;20516;-88
2023/04/25 01:48:20;;;;;;;5.05;1.65;;;;;;;13.06;59.90;98627.13;4484148;32;20204;-88
2023/04/25 01:50:45;;;;;;;5.72;1.70;;;;;;;13.07;59.91;98626.19;4473634;31;20197;-88
2023/04/25 01:53:11;;;;;;;2.53;1.73;;;;;;;13.17;59.90;98623.84;4476139;31;20418;-87
2023/04/25 01:55:37;;;;;;;2.50;1.67;;;;;;;13.03;59.89;98640.38;4470881;31;20107;-88
2023/04/25 01:58:03;;;;;;;5.82;1.90;;;;;;;13.00;59.90;98629.25;4472843;31;26572;-88
2023/04/25 02:00:29;;;;;;;2.78;1.65;;;;;;;13.05;59.90;98632.44;4487488;31;20130;-88
2023/04/25 02:02:58;;;;;;;2.78;1.77;;;;;;;13.09;59.90;98637.37;4486012;32;20100;-87
2023/04/25 02:05:23;;;;;;;3.90;2.00;;;;;;;13.09;59.90;98640.00;4485735;31;20100;-89
2023/04/25 02:07:49;;;;;;;4.70;1.70;;;;;;;13.02;59.89;98633.47;4477784;32;21019;-88
2023/04/25 02:10:14;;;;;;;4.03;1.98;;;;;;;12.86;59.89;98635.31;4458671;32;20468;-90
2023/04/25 02:12:40;;;;;;;2.90;1.85;;;;;;;12.91;59.89;98633.25;4483590;32;20134;-88
2023/04/25 02:15:06;;;;;;;2.80;2.10;;;;;;;12.68;59.88;98641.59;4511606;31;21071;-89
2023/04/25 02:17:32;;;;;;;2.72;1.55;;;;;;;12.84;59.89;98632.78;4494237;31;20087;-90
2023/04/25 02:19:57;;;;;;;2.70;1.60;;;;;;;12.91;59.90;98647.16;4500716;31;20056;-89
2023/04/25 02:22:23;;;;;;;3.65;1.70;;;;;;;12.86;59.89;98630.91;4485593;32;20096;-89
2023/04/25 02:24:48;;;;;;;2.97;1.52;;;;;;;12.88;59.89;98636.03;4484673;31;20144;-89
2023/04/25 02:27:13;;;;;;;3.75;1.70;;;;;;;12.94;59.90;98622.63;4471773;32;20152;-88
2023/04/25 02:29:39;;;;;;;2.67;1.87;;;;;;;12.99;59.90;98628.41;4483572;31;20172;-88
2023/04/25 02:32:05;;;;;;;2.62;1.80;;;;;;;13.02;59.89;98630.84;4483974;32;20185;-88
2023/04/25 02:34:30;;;;;;;5.10;2.28;;;;;;;12.99;59.90;98623.16;4483912;31;20149;-89
2023/04/25 02:36:56;;;;;;;3.35;1.85;;;;;;;12.80;59.88;98633.06;4484236;32;20129;-90
2023/04/25 02:39:22;;;;;;;3.62;2.80;;;;;;;12.66;59.88;98622.56;4470705;31;20112;-88
2023/04/25 02:41:47;;;;;;;3.28;2.40;;;;;;;12.53;59.88;98623.25;4476088;32;20456;-87
2023/04/25 02:44:12;;;;;;;3.10;2.03;;;;;;;12.50;59.87;98635.66;4486283;31;20142;-88
2023/04/25 02:46:38;;;;;;;2.10;1.62;;;;;;;12.42;59.88;98625.66;4483744;32;20140;-88
2023/04/25 02:49:03;;;;;;;4.15;2.03;;;;;;;12.58;59.88;98625.62;4472799;32;20155;-88
2023/04/25 02:51:30;;;;;;;2.65;1.90;;;;;;;12.71;59.88;98629.19;4483758;32;20474;-90
2023/04/25 02:53:55;;;;;;;2.58;2.00;;;;;;;12.68;59.89;98620.69;4468243;31;20088;-89
2023/04/25 02:56:20;;;;;;;3.97;1.80;;;;;;;12.47;59.87;98623.63;4465512;31;20472;-89
2023/04/25 02:58:46;;;;;;;4.05;1.58;;;;;;;12.43;59.86;98631.72;4472754;31;20123;-89
2023/04/25 03:01:11;;;;;;;4.25;2.35;;;;;;;12.49;59.87;98626.16;4486300;31;20144;-91
2023/04/25 03:03:37;;;;;;;3.00;2.03;;;;;;;12.56;59.87;98633.56;4482530;31;28110;-90
2023/04/25 03:06:02;;;;;;;2.37;1.77;;;;;;;12.46;59.87;98629.78;4465021;31;20153;-89
2023/04/25 03:08:32;;;;;;;2.90;1.77;;;;;;;12.47;59.87;98618.41;4462561;32;20119;-89
2023/04/25 03:10:58;;;;;;;2.62;1.90;;;;;;;12.38;59.87;98625.94;4483316;32;20130;-91
2023/04/25 03:13:23;;;;;;;3.42;1.83;;;;;;;12.36;59.87;98630.41;4468062;32;20088;-89
2023/04/25 03:15:49;;;;;;;3.65;1.80;;;;;;;12.41;59.86;98629.19;4459011;32;20519;-89
2023/04/25 03:18:14;;;;;;;2.60;1.75;;;;;;;12.45;59.87;98622.88;4459282;32;20179;-88
2023/04/25 03:20:41;;;;;;;10.10;2.35;;;;;;;12.40;59.87;98624.91;4493677;31;20202;-87
2023/04/25 03:23:07;;;;;;;2.60;2.00;;;;;;;12.34;59.86;98627.88;4488512;31;20100;-88
2023/04/25 03:25:32;;;;;;;4.05;2.17;;;;;;;12.33;59.86;98627.97;4485048;32;20160;-88
2023/04/25 03:27:57;;;;;;;4.35;2.28;;;;;;;12.35;59.86;98633.94;4486698;31;20124;-88
2023/04/25 03:30:23;;;;;;;3.22;2.08;;;;;;;12.23;59.86;98632.84;4479921;32;20234;-88
2023/04/25 03:32:49;;;;;;;3.62;2.00;;;;;;;12.18;59.85;98627.06;4486466;31;20088;-88
2023/04/25 03:35:15;;;;;;;2.50;1.98;;;;;;;12.17;59.86;98630.59;4486305;31;20453;-88
2023/04/25 03:37:40;;;;;;;3.45;2.37;;;;;;;11.93;59.84;98632.81;4485982;31;20148;-88
2023/04/25 03:40:06;;;;;;;4.10;2.15;;;;;;;12.22;59.86;98637.22;4485089;32;20269;-89
2023/04/25 03:42:31;;;;;;;3.53;2.30;;;;;;;12.26;59.85;98630.91;4485096;31;20124;-89
2023/04/25 03:44:57;;;;;;;4.80;2.08;;;;;;;12.31;59.87;98635.88;4472732;32;20088;-88
2023/04/25 03:47:22;;;;;;;3.78;1.90;;;;;;;12.13;59.84;98626.47;4484828;32;20168;-88
2023/04/25 03:49:49;;;;;;;3.12;1.92;;;;;;;12.12;59.85;98630.03;4471892;32;20104;-88
2023/04/25 03:52:14;;;;;;;3.15;2.28;;;;;;;12.08;59.85;98636.34;4482258;31;20115;-88
2023/04/25 03:54:40;;;;;;;3.92;2.60;;;;;;;11.89;59.83;98649.56;4485324;32;20756;-88
2023/04/25 03:57:06;;;;;;;7.30;2.58;;;;;;;11.75;59.82;98644.19;4472329;31;20402;-88
2023/04/25 03:59:31;;;;;;;5.65;2.78;;;;;;;11.90;59.85;98636.44;4485709;32;22009;-89
2023/04/25 04:01:56;;;;;;;4.62;2.85;;;;;;;11.99;59.85;98648.09;4473403;31;20151;-88
2023/04/25 04:04:22;;;;;;;4.22;2.30;;;;;;;12.07;59.85;98639.88;4477397;32;20092;-88
2023/04/25 04:06:47;;;;;;;3.12;2.10;;;;;;;11.73;59.83;98644.28;4463804;31;20112;-87
2023/04/25 04:09:13;;;;;;;4.50;3.05;;;;;;;11.92;59.85;98647.62;4484831;32;20152;-88
2023/04/25 04:11:39;;;;;;;3.45;2.25;;;;;;;11.73;59.83;98646.91;4482351;31;20092;-89
2023/04/25 04:14:07;;;;;;;3.53;2.10;;;;;;;11.88;59.83;98653.09;4471629;32;20084;-89
2023/04/25 04:16:32;;;;;;;4.25;2.40;;;;;;;11.83;59.84;98648.12;4484653;31;20142;-90
2023/04/25 04:18:58;;;;;;;5.80;3.03;;;;;;;11.80;59.83;98648.25;4478741;31;20396;-87
2023/04/25 04:21:23;;;;;;;6.47;3.35;;;;;;;11.81;59.83;98651.72;4489316;31;20142;-91
2023/04/25 04:23:49;;;;;;;6.07;3.47;;;;;;;11.75;59.83;98659.84;4463682;32;20088;-92
2023/04/25 04:26:16;;;;;;;4.12;2.78;;;;;;;11.85;59.84;98655.88;4470800;31;20156;-90
2023/04/25 04:28:42;;;;;;;5.25;2.53;;;;;;;11.69;59.83;98661.88;4476755;31;20109;-90
2023/04/25 04:31:09;;;;;;;3.42;2.35;;;;;;;11.67;59.83;98662.88;4473631;31;20479;-91
2023/04/25 04:33:34;;;;;;;5.40;2.87;;;;;;;11.45;59.81;98667.53;4466603;32;20783;-88
2023/04/25 04:36:00;;;;;;;6.32;2.83;;;;;;;11.53;59.83;98661.00;4479365;31;20144;-88
2023/04/25 04:38:26;;;;;;;4.82;2.85;;;;;;;11.35;59.81;98668.00;4485318;31;20179;-87
2023/04/25 04:40:52;;;;;;;4.47;2.40;;;;;;;11.41;59.81;98663.41;4469514;32;20088;-87
2023/04/25 04:43:18;;;;;;;4.28;2.58;;;;;;;11.49;59.82;98663.84;4469566;31;20106;-88
2023/04/25 04:45:44;;;;;;;14.07;3.42;;;;;;;11.49;59.81;98659.47;4486066;31;20127;-87
2023/04/25 04:48:11;;;;;;;6.55;3.45;;;;;;;11.43;59.81;98672.00;4473513;32;20140;-89
2023/04/25 04:50:37;;;;;;;6.22;2.95;;;;;;;11.41;59.82;98674.69;4471518;32;20110;-89
2023/04/25 04:53:03;;;;;;;8.20;3.25;;;;;;;11.35;59.81;98665.41;4484347;32;20108;-88
2023/04/25 04:55:29;;;;;;;4.45;3.20;;;;;;;11.27;59.81;98669.34;4485873;31;20100;-87
2023/04/25 04:57:54;;;;;;;5.60;3.45;;;;;;;11.22;59.80;98671.34;4484256;32;20096;-89
2023/04/25 05:00:20;;;;;;;3.45;2.55;;;;;;;11.28;59.80;98677.06;4471047;32;20128;-89
2023/04/25 05:02:46;;;;;;;4.28;2.85;;;;;;;11.15;59.81;98673.44;4483701;32;20100;-88
2023/04/25 05:05:11;;;;;;;5.37;3.08;;;;;;;11.15;59.79;98680.41;4462748;32;20505;-88
2023/04/25 05:07:36;;;;;;;8.70;3.53;;;;;;;11.15;59.81;98673.44;4471968;31;20083;-89
2023/04/25 05:10:02;;;;;;;6.30;3.40;;;;;;;11.25;59.81;98672.03;4487455;31;20100;-89
2023/04/25 05:12:27;;;;;;;7.20;3.53;;;;;;;11.21;59.80;98674.87;4487612;31;20111;-89
2023/04/25 05:14:53;;;;;;;5.32;3.50;;;;;;;11.23;59.80;98670.41;4487598;31;20152;-89
2023/04/25 05:17:18;;;;;;;5.97;3.37;;;;;;;10.97;59.79;98672.59;4484492;32;20474;-88
2023/04/25 05:19:44;;;;;;;6.43;3.03;;;;;;;10.77;59.79;98677.97;4474889;32;20213;-88
2023/04/25 05:22:10;;;;;;;5.95;3.78;;;;;;;10.75;59.77;98678.03;4476846;32;20117;-91
2023/04/25 05:24:35;;;;;;;6.00;3.08;;;;;;;10.82;59.78;98675.97;4490395;32;20454;-89
2023/04/25 05:27:01;;;;;;;6.95;3.75;;;;;;;10.89;59.78;98666.13;4470625;32;20489;-89
2023/04/25 05:29:26;;;;;;;5.10;3.70;;;;;;;11.03;59.79;98672.28;4457715;32;20148;-88
2023/04/25 05:31:52;;;;;;;4.87;3.78;;;;;;;10.95;59.79;98681.41;4470224;31;33183;-88
2023/04/25 05:34:18;;;;;;;7.68;3.58;;;;;;;10.85;59.77;98690.59;4491567;31;20108;-89
2023/04/25 05:36:43;;;;;;;7.87;3.87;;;;;;;10.89;59.78;98684.34;4483745;31;20139;-89
2023/04/25 05:39:08;;;;;;;9.60;3.58;;;;;;;10.73;59.77;98687.69;4477028;31;23292;-88
2023/04/25 05:41:34;;;;;;;6.03;3.50;;;;;;;10.80;59.78;98683.00;4486373;31;20116;-88
2023/04/25 05:43:59;;;;;;;7.12;3.70;;;;;;;10.92;59.79;98678.97;4484477;32;25910;-89
2023/04/25 05:46:25;;;;;;;6.68;3.78;;;;;;;10.97;59.79;98670.00;4470608;31;20111;-90
2023/04/25 05:48:50;;;;;;;6.28;3.75;;;;;;;10.95;59.79;98673.59;4464563;31;20153;-89
2023/04/25 05:51:16;;;;;;;6.20;3.53;;;;;;;11.08;59.80;98672.88;4470548;31;20152;-88
2023/04/25 05:53:41;;;;;;;5.00;3.40;;;;;;;11.06;59.79;98672.13;4477468;31;20148;-89
2023/04/25 05:56:07;;;;;;;6.50;3.80;;;;;;;11.11;59.79;98679.69;4487481;31;27903;-88
2023/04/25 06:01:16;;;;;;;6.68;3.30;;;;;;;11.44;59.81;98678.88;4488820;31;20134;-89
2023/04/25 06:03:42;;;;;;;5.10;4.07;;;;;;;11.41;59.81;98672.06;4489784;31;20104;-88
2023/04/25 06:06:08;;;;;;;7.47;4.28;;;;;;;11.35;59.80;98683.63;4473195;32;20108;-88
2023/04/25 06:08:34;;;;;;;4.80;3.30;;;;;;;11.35;59.81;98677.59;4485389;31;20114;-89
2023/04/25 06:10:59;;;;;;;5.87;3.40;;;;;;;11.29;59.80;98677.91;4483965;31;20115;-88
2023/04/25 06:13:25;;;;;;;6.20;3.53;;;;;;;11.30;59.80;98666.56;4500926;31;20484;-88
2023/04/25 06:15:50;;;;;;;7.00;3.65;;;;;;;11.49;59.81;98679.47;4485895;31;20132;-89
2023/04/25 06:18:16;;;;;;;7.30;4.25;;;;;;;11.68;59.83;98678.44;4483579;32;20111;-90
2023/04/25 06:20:41;;;;;;;6.25;3.28;;;;;;;11.70;59.83;98675.75;4483251;32;22446;-88
2023/04/25 06:23:07;;;;;;;7.57;3.65;;;;;;;11.92;59.84;98673.69;4483911;32;20097;-88
2023/04/25 06:25:32;;;;;;;4.87;3.42;;;;;;;11.96;59.84;98671.75;4485601;31;20151;-88
2023/04/25 06:27:57;;;;;;;5.30;3.12;;;;;;;11.82;59.83;98674.25;4495290;31;20368;-88
2023/04/25 06:30:25;;;;;;;4.85;3.05;;;;;;;11.84;59.84;98667.22;4486973;32;20461;-90
2023/04/25 06:32:51;;;;;;;5.47;3.25;;;;;;;11.90;59.84;98675.53;4477117;32;20134;-90
2023/04/25 06:35:17;;;;;;;4.20;2.80;;;;;;;11.99;59.85;98674.19;4486851;32;20072;-89
2023/04/25 06:37:42;;;;;;;3.92;2.95;;;;;;;12.11;59.84;98672.69;4486067;32;27232;-89
2023/04/25 06:40:08;;;;;;;4.25;2.70;;;;;;;12.05;59.84;98668.63;4504810;31;20116;-89
2023/04/25 06:42:33;;;;;;;7.35;2.97;;;;;;;12.22;59.86;98668.53;4483546;32;20143;-88
2023/04/25 06:44:59;;;;;;;4.62;2.83;;;;;;;12.22;59.86;98673.75;4471016;32;20148;-89
2023/04/25 06:47:24;;;;;;;4.90;3.22;;;;;;;12.25;59.85;98659.69;4485003;31;20433;-89
2023/04/25 06:49:50;;;;;;;10.27;3.60;;;;;;;12.22;59.86;98667.69;4467390;31;20111;-89
2023/04/25 06:52:17;;;;;;;5.85;3.37;;;;;;;12.38;59.86;98658.09;4483822;32;20123;-89
2023/04/25 06:54:43;;;;;;;5.55;2.62;;;;;;;12.53;59.87;98659.81;4487910;31;20155;-89
2023/04/25 06:57:08;;;;;;;3.20;2.47;;;;;;;12.58;59.88;98667.41;4470660;32;20088;-89
2023/04/25 06:59:34;;;;;;;4.37;2.87;;;;;;;12.72;59.88;98662.22;4469983;32;33654;-89
2023/04/25 07:01:59;;;;;;;4.75;3.20;;;;;;;12.84;59.89;98664.12;4465378;32;20105;-88
2023/04/25 07:04:24;;;;;;;4.90;3.00;;;;;;;13.02;59.89;98679.66;4484744;31;20142;-88
2023/04/25 07:06:50;;;;;;;7.57;3.20;;;;;;;13.13;59.91;98672.00;4479950;31;20119;-90
2023/04/25 07:09:16;;;;;;;3.37;2.62;;;;;;;13.21;59.91;98680.25;4470400;32;20096;-90
2023/04/25 07:11:41;;;;;;;3.80;2.58;;;;;;;13.29;59.91;98662.34;4483567;32;20088;-89
2023/04/25 07:14:07;;;;;;;4.57;2.90;;;;;;;13.33;59.91;98666.47;4456696;32;34703;-90
2023/04/25 07:16:32;;;;;;;7.22;2.92;;;;;;;13.55;59.92;98671.22;4470450;32;20121;-89
2023/04/25 07:18:59;;;;;;;5.85;2.87;;;;;;;13.72;59.93;98672.78;4483306;31;20098;-90
2023/04/25 07:21:25;;;;;;;4.32;2.70;;;;;;;14.06;59.95;98667.13;4473407;32;20096;-90
2023/04/25 07:23:51;;;;;;;3.42;2.53;;;;;;;13.74;59.94;98674.41;4483064;32;20163;-91
2023/04/25 07:26:16;;;;;;;3.47;2.42;;;;;;;13.90;59.95;98666.41;4482459;32;25096;-89
2023/04/25 07:28:42;;;;;;;4.43;2.87;;;;;;;13.78;59.93;98686.34;4469986;31;20409;-89
2023/04/25 07:31:07;;;;;;;4.37;2.87;;;;;;;13.72;59.93;98675.41;4477194;31;20540;-90
2023/04/25 07:33:33;;;;;;;5.70;2.83;;;;;;;13.77;59.94;98668.97;4469210;31;28711;-89
2023/04/25 07:35:58;;;;;;;3.58;2.55;;;;;;;13.93;59.94;98668.00;4474797;32;20357;-90
2023/04/25 07:38:24;;;;;;;5.50;2.50;;;;;;;13.87;59.94;98686.69;4486034;31;20092;-89
2023/04/25 07:40:49;;;;;;;4.20;2.35;;;;;;;13.90;59.95;98669.03;4484479;31;20183;-90
2023/04/25 07:43:16;;;;;;;3.50;2.60;;;;;;;14.03;59.96;98666.50;4482788;31;20088;-90
2023/04/25 07:45:45;;;;;;;3.85;2.85;;;;;;;14.35;59.97;98670.50;4483123;32;20192;-88
2023/04/25 07:48:11;;;;;;;3.25;2.47;;;;;;;14.39;59.97;98673.75;4467244;31;20092;-89
2023/04/25 07:50:36;;;;;;;5.05;2.80;;;;;;;14.24;59.96;98670.38;4456993;32;20122;-89
2023/04/25 07:53:02;;;;;;;4.85;2.70;;;;;;;14.43;59.97;98673.50;4480397;31;20431;-90
2023/04/25 07:55:27;;;;;;;5.40;3.22;;;;;;;14.60;59.99;98674.16;4474754;32;20423;-91
2023/04/25 07:57:53;;;;;;;7.47;3.15;;;;;;;14.76;60.00;98663.53;4485380;32;20165;-90
2023/04/25 08:00:18;;;;;;;4.28;2.58;;;;;;;14.91;60.00;98658.13;4477607;31;20100;-89
2023/04/25 08:02:44;;;;;;;3.92;2.60;;;;;;;14.76;59.99;98663.53;4485089;31;20116;-90
2023/04/25 08:05:13;;;;;;;3.83;2.67;;;;;;;14.74;59.99;98664.47;4467096;31;20119;-90
2023/04/25 08:07:40;;;;;;;5.00;2.57;;;;;;;14.79;60.00;98663.31;4475592;31;20492;-90
2023/04/25 08:10:06;;;;;;;3.62;2.60;;;;;;;14.88;60.00;98673.19;4485382;32;20732;-89
2023/04/25 08:12:32;;;;;;;6.43;2.70;;;;;;;14.78;59.99;98669.50;4471797;31;20264;-90
2023/04/25 08:14:57;;;;;;;5.97;3.33;;;;;;;14.65;59.99;98685.19;4492965;31;20132;-89
2023/04/25 08:17:23;;;;;;;4.97;2.87;;;;;;;14.66;59.99;98679.00;4471789;31;20088;-89
2023/04/25 08:19:48;;;;;;;4.90;3.08;;;;;;;14.84;59.99;98676.94;4486858;31;20135;-89
2023/04/25 08:22:14;;;;;;;3.12;2.12;;;;;;;14.79;60.00;98668.56;4484705;31;20464;-90
2023/04/25 08:24:40;;;;;;;3.72;2.70;;;;;;;14.87;60.01;98671.50;4492814;31;20106;-90
2023/04/25 08:27:07;;;;;;;5.85;2.60;;;;;;;14.74;59.99;98674.97;4481959;31;20130;-89
2023/04/25 08:29:32;;;;;;;4.60;2.83;;;;;;;14.77;59.99;98671.28;4467733;31;20711;-90
2023/04/25 08:31:58;;;;;;;5.07;3.08;;;;;;;14.85;59.99;98682.09;4485197;31;20172;-89
2023/04/25 08:34:23;;;;;;;3.33;2.60;;;;;;;14.70;60.00;98689.19;4484371;32;22364;-89
2023/04/25 08:36:48;;;;;;;3.78;3.10;;;;;;;14.58;59.98;98689.16;4471402;31;20170;-89
2023/04/25 08:39:14;;;;;;;4.85;3.45;;;;;;;14.77;59.99;98694.03;4473925;32;21032;-91
2023/04/25 08:41:40;;;;;;;4.82;3.40;;;;;;;14.80;60.00;98697.28;4471720;32;20136;-89
2023/04/25 08:44:06;;;;;;;3.80;2.85;;;;;;;14.75;59.99;98691.50;4485905;32;20145;-91
2023/04/25 08:46:32;;;;;;;3.80;2.80;;;;;;;14.92;60.00;98693.03;4473200;31;20140;-90
2023/04/25 08:49:02;;;;;;;5.95;2.90;;;;;;;14.91;60.00;98709.69;4472034;32;20482;-90
2023/04/25 08:51:27;;;;;;;2.55;2.17;;;;;;;14.64;59.99;98705.28;4484514;31;20100;-90
2023/04/25 08:53:53;;;;;;;4.05;2.87;;;;;;;14.93;60.00;98706.03;4476691;32;20140;-91
2023/04/25 08:56:20;;;;;;;6.05;2.53;;;;;;;15.12;60.01;98710.00;4481962;31;20390;-90
2023/04/25 08:58:48;;;;;;;4.80;3.08;;;;;;;14.90;60.00;98713.22;4479537;31;20147;-90
2023/04/25 09:01:13;;;;;;;3.72;2.62;;;;;;;14.85;59.99;98723.16;4474128;31;20128;-89
2023/04/25 09:03:38;;;;;;;3.33;2.50;;;;;;;14.75;59.99;98717.72;4471289;32;21539;-89
2023/04/25 09:06:04;;;;;;;3.20;2.80;;;;;;;14.78;59.99;98716.66;4486619;31;20075;-89
2023/04/25 09:08:30;;;;;;;2.72;2.33;;;;;;;14.60;59.99;98729.16;4486309;32;20145;-89
2023/04/25 09:10:55;;;;;;;4.37;2.90;;;;;;;14.70;59.98;98715.41;4474015;31;20092;-90
2023/04/25 09:13:25;;;;;;;4.53;2.75;;;;;;;14.75;59.99;98722.94;4481351;31;25229;-90
2023/04/25 09:15:51;;;;;;;;;;;;;;;14.83;59.99;98725.91;4490142;31;20151;-89
2023/04/25 09:18:27;;;;;;;3.00;2.37;;;;;;;14.89;60.00;98724.66;4493461;31;20047;-90
2023/04/25 09:21:11;;;;;;;4.35;2.40;;;;;;;14.92;60.00;98706.13;4471324;32;20108;-90
2023/04/25 09:23:44;;;;;;;3.17;2.47;;;;;;;14.78;60.00;98725.34;4484816;31;20118;-89
2023/04/25 09:26:10;;;;;;;3.95;2.70;;;;;;;14.94;60.00;98707.69;4458981;32;20088;-89
2023/04/25 09:28:37;;;;;;;2.97;2.50;;;;;;;14.92;60.00;98712.22;4473056;31;20142;-90
2023/04/25 09:31:03;;;;;;;3.20;2.05;;;;;;;15.08;60.01;98705.94;4480532;32;20180;-90
2023/04/25 09:33:30;;;;;;;2.25;2.05;;;;;;;15.15;60.01;98704.59;4483702;31;34109;-90
2023/04/25 09:36:03;;;;;;;3.97;2.20;;;;;;;15.16;60.01;98716.75;4487168;32;20104;-89
2023/04/25 09:38:30;;;;;;;2.92;2.08;;;;;;;15.15;60.02;98702.81;4458808;31;20175;-89
2023/04/25 09:40:55;;;;;;;4.25;2.08;;;;;;;15.17;60.02;98692.22;4479316;31;20482;-90
2023/04/25 09:43:21;;;;;;;4.43;2.33;;;;;;;15.15;60.01;98689.72;4473542;31;20128;-90
2023/04/25 09:45:47;;;;;;;2.35;1.80;;;;;;;15.53;60.03;98689.69;4479146;32;20088;-91
2023/04/25 09:48:22;;;;;;;2.85;2.03;;;;;;;15.75;60.04;98707.44;4471281;31;20150;-90
2023/04/25 09:51:07;;;;;;;2.62;1.80;;;;;;;15.73;60.05;98701.47;4484519;32;20156;-90
2023/04/25 09:53:42;;;;;;;2.62;1.80;;;;;;;15.77;60.04;98700.31;4485731;31;20088;-91
2023/04/25 09:56:08;;;;;;;2.33;1.85;;;;;;;15.84;60.05;98692.81;4460841;31;20083;-90
2023/04/25 09:58:35;;;;;;;3.87;1.98;;;;;;;15.85;60.05;98699.75;4478051;31;20108;-90
2023/04/25 10:01:02;;;;;;;3.30;1.55;;;;;;;15.80;60.06;98704.50;4470868;31;20096;-90
2023/04/25 10:03:30;;;;;;;2.60;1.50;;;;;;;15.82;60.06;98705.22;4471091;32;20111;-89
2023/04/25 10:05:56;;;;;;;2.45;1.67;;;;;;;15.80;60.06;98704.50;4480962;32;20161;-88
2023/04/25 10:08:21;;;;;;;3.40;1.80;;;;;;;15.84;60.05;98703.31;4483966;32;20108;-89
2023/04/25 10:10:47;;;;;;;1.83;1.35;;;;;;;15.84;60.05;98706.78;4481340;31;20115;-89
2023/04/25 10:13:14;;;;;;;2.12;1.02;;;;;;;15.64;60.04;98695.09;4478297;31;20100;-90
2023/04/25 10:15:40;;;;;;;1.83;1.00;;;;;;;15.74;60.05;98700.53;4474467;31;20103;-89
2023/04/25 10:18:06;;;;;;;3.47;0.93;;;;;;;15.79;60.05;98710.69;4478134;31;20100;-91
2023/04/25 10:20:31;;;;;;;1.00;0.88;;;;;;;15.80;60.05;98705.31;4484976;31;20184;-90
2023/04/25 10:23:00;;;;;;;2.12;0.82;;;;;;;16.05;60.06;98709.69;4470759;32;20405;-90
2023/04/25 10:25:25;;;;;;;0.95;0.80;;;;;;;16.05;60.06;98701.81;4473265;31;20060;-90
2023/04/25 10:27:54;;;;;;;1.20;0.90;;;;;;;16.07;60.06;98702.53;4480166;31;20203;-89
2023/04/25 10:30:19;;;;;;;1.10;0.75;;;;;;;16.12;60.07;98705.69;4487183;31;20126;-89
2023/04/25 10:32:49;;;;;;;0.93;0.57;;;;;;;16.19;60.07;98698.22;4494757;31;20112;-88
2023/04/25 10:35:23;;;;;;;1.25;0.70;;;;;;;16.37;60.08;98698.69;4483824;32;20087;-87
2023/04/25 10:38:05;;;;;;;0.93;0.50;;;;;;;16.31;60.07;98696.47;4483666;32;20100;-91
2023/04/25 10:40:31;;;;;;;3.92;0.60;;;;;;;16.53;60.09;98693.97;4486594;31;20113;-90
2023/04/25 10:43:36;;;;;;;1.00;0.60;;;;;;;16.79;60.10;98695.56;4486463;31;20092;-87
2023/04/25 10:46:01;;;;;;;0.40;0.40;;;;;;;16.97;60.11;98693.34;4485119;31;20464;-90
2023/04/25 10:48:27;;;;;;;0.62;0.40;;;;;;;17.26;60.13;98691.16;4483701;32;20173;-88
2023/04/25 10:51:11;;;;;;;0.35;0.25;;;;;;;17.41;60.14;98684.72;4483687;32;20116;-88
2023/04/25 10:53:37;;;;;;;0.57;0.40;;;;;;;17.27;60.13;98697.25;4486763;32;20084;-88
2023/04/25 10:56:30;;;;;;;0.28;0.22;;;;;;;17.23;60.12;98696.63;4483451;32;21079;-90
2023/04/25 10:59:15;;;;;;;0.43;0.40;;;;;;;17.17;60.13;98702.38;4480916;32;20088;-87
2023/04/25 11:01:47;;;;;;;1.52;0.40;;;;;;;17.70;60.15;98706.19;4470631;32;20176;-87
2023/04/25 11:04:31;;;;;;;0.30;0.20;;;;;;;17.53;60.14;98700.53;4480336;31;20092;-87
2023/04/25 11:07:22;;;;;;;0.57;0.28;;;;;;;18.02;60.17;98695.78;4486239;31;20103;-88
2023/04/25 11:09:48;;;;;;;2.35;0.57;;;;;;;18.53;60.19;98696.97;4484940;31;20361;-89
2023/04/25 11:12:14;;;;;;;0.80;0.50;;;;;;;18.52;60.19;98698.78;4483731;31;20170;-88
2023/04/25 11:14:40;;;;;;;1.55;0.60;;;;;;;18.42;60.19;98698.66;4487038;31;20484;-87
2023/04/25 11:17:05;;;;;;;1.58;0.30;;;;;;;18.52;60.19;98701.41;4480266;31;20125;-89
2023/04/25 11:19:31;;;;;;;1.85;0.40;;;;;;;18.70;60.21;98709.66;4475540;31;20464;-88
2023/04/25 11:22:00;;;;;;;0.98;0.47;;;;;;;18.55;60.20;98716.97;4488067;31;20148;-87
2023/04/25 11:24:30;;;;;;;0.20;0.20;;;;;;;18.17;60.18;98708.66;4470040;32;20084;-89
2023/04/25 11:26:57;;;;;;;0.93;0.40;;;;;;;18.27;60.18;98701.72;4481146;31;20106;-89
2023/04/25 11:29:23;;;;;;;0.57;0.25;;;;;;;17.84;60.17;98707.75;4492571;31;20096;-90
2023/04/25 11:31:49;;;;;;;1.80;0.30;;;;;;;17.65;60.15;98707.47;4465546;31;20108;-88
2023/04/25 11:34:18;;;;;;;0.28;0.22;;;;;;;17.58;60.14;98720.28;4469974;32;20382;-87